sensor_id;sensor_type;location;lat;lon;timestamp;pressure;altitude;pressure_sealevel;temperature;humidity
8477;BME280;4275;42.854;23.222;2023-11-21T00:53:06;38365.91;;;-141.02;100.00
8477;BME280;4275;42.854;23.222;2023-11-21T00:55:35;38352.47;;;-141.02;100.00
8477;BME280;4275;42.854;23.222;2023-11-21T00:58:05;38381.22;;;-141.02;100.00
8477;BME280;4275;42.854;23.222;2023-11-21T01:00:34;38392.75;;;-141.02;100.00
8477;BME280;4275;42.854;23.222;2023-11-21T01:03:07;38446.41;;;-141.02;100.00
8477;BME280;4275;42.854;23.222;2023-11-21T01:05:34;38427.25;;;-141.02;100.00
8477;BME280;4275;42.854;23.222;2023-11-21T01:08:09;38427.25;;;-141.02;100.00
8477;BME280;4275;42.854;23.222;2023-11-21T01:10:36;38442.59;;;-141.02;100.00
8477;BME280;4275;42.854;23.222;2023-11-21T01:13:05;38459.84;;;-141.02;100.00
8477;BME280;4275;42.854;23.222;2023-11-21T01:15:35;38446.41;;;-141.02;100.00
8477;BME280;4275;42.854;23.222;2023-11-21T01:18:08;38465.59;;;-141.02;100.00
8477;BME280;4275;42.854;23.222;2023-11-21T02:14:23;38162.69;;;-141.02;100.00
8477;BME280;4275;42.854;23.222;2023-11-21T02:16:50;38164.59;;;-141.02;100.00
8477;BME280;4275;42.854;23.222;2023-11-21T02:22:39;38193.34;;;-141.02;100.00
8477;BME280;4275;42.854;23.222;2023-11-21T02:25:09;38178.00;;;-141.02;100.00
8477;BME280;4275;42.854;23.222;2023-11-21T02:27:36;38202.94;;;-141.02;100.00
8477;BME280;4275;42.854;23.222;2023-11-21T02:30:04;38231.69;;;-141.02;100.00
8477;BME280;4275;42.854;23.222;2023-11-21T02:32:33;38237.44;;;-141.02;100.00
8477;BME280;4275;42.854;23.222;2023-11-21T02:35:04;38254.69;;;-141.02;100.00
8477;BME280;4275;42.854;23.222;2023-11-21T02:37:33;38247.03;;;-141.02;100.00
8477;BME280;4275;42.854;23.222;2023-11-21T02:40:00;38243.19;;;-141.02;100.00
8477;BME280;4275;42.854;23.222;2023-11-21T02:42:31;38277.72;;;-141.02;100.00
8477;BME280;4275;42.854;23.222;2023-11-21T02:44:58;38266.19;;;-141.02;100.00
8477;BME280;4275;42.854;23.222;2023-11-21T02:47:25;38247.03;;;-141.02;100.00
8477;BME280;4275;42.854;23.222;2023-11-21T02:49:52;38275.78;;;-141.02;100.00
8477;BME280;4275;42.854;23.222;2023-11-21T02:52:19;38235.53;;;-141.02;100.00
8477;BME280;4275;42.854;23.222;2023-11-21T02:54:48;38231.69;;;-141.02;100.00
8477;BME280;4275;42.854;23.222;2023-11-21T02:57:19;38216.34;;;-141.02;100.00
8477;BME280;4275;42.854;23.222;2023-11-21T02:59:50;38216.34;;;-141.02;100.00
8477;BME280;4275;42.854;23.222;2023-11-21T03:02:20;38270.03;;;-141.02;100.00
8477;BME280;4275;42.854;23.222;2023-11-21T03:04:50;38231.69;;;-141.02;100.00
8477;BME280;4275;42.854;23.222;2023-11-21T03:07:20;38193.34;;;-141.02;100.00
8477;BME280;4275;42.854;23.222;2023-11-21T03:09:50;38174.19;;;-141.02;100.00
8477;BME280;4275;42.854;23.222;2023-11-21T03:12:23;38155.00;;;-141.02;100.00
8477;BME280;4275;42.854;23.222;2023-11-21T03:14:52;38162.69;;;-141.02;100.00
8477;BME280;4275;42.854;23.222;2023-11-21T03:17:21;38143.50;;;-141.02;100.00
8477;BME280;4275;42.854;23.222;2023-11-21T03:23:09;38162.69;;;-141.02;100.00
8477;BME280;4275;42.854;23.222;2023-11-21T03:25:36;38158.84;;;-141.02;100.00
8477;BME280;4275;42.854;23.222;2023-11-21T03:28:04;38166.50;;;-141.02;100.00
8477;BME280;4275;42.854;23.222;2023-11-21T03:30:32;38160.75;;;-141.02;100.00
8477;BME280;4275;42.854;23.222;2023-11-21T03:33:00;38151.19;;;-141.02;100.00
8477;BME280;4275;42.854;23.222;2023-11-21T03:35:27;38174.19;;;-141.02;100.00
8477;BME280;4275;42.854;23.222;2023-11-21T03:37:54;38151.19;;;-141.02;100.00
8477;BME280;4275;42.854;23.222;2023-11-21T03:40:22;38158.84;;;-141.02;100.00
8477;BME280;4275;42.854;23.222;2023-11-21T03:42:52;38187.59;;;-141.02;100.00
8477;BME280;4275;42.854;23.222;2023-11-21T03:45:28;38153.09;;;-141.02;100.00
8477;BME280;4275;42.854;23.222;2023-11-21T03:47:57;38174.19;;;-141.02;100.00
8477;BME280;4275;42.854;23.222;2023-11-21T03:50:26;38178.00;;;-141.02;100.00
8477;BME280;4275;42.854;23.222;2023-11-21T03:52:53;38193.34;;;-141.02;100.00
8477;BME280;4275;42.854;23.222;2023-11-21T03:55:20;38143.50;;;-141.02;100.00
8477;BME280;4275;42.854;23.222;2023-11-21T03:57:49;38162.69;;;-141.02;100.00
8477;BME280;4275;42.854;23.222;2023-11-21T04:00:17;38155.00;;;-141.02;100.00
8477;BME280;4275;42.854;23.222;2023-11-21T04:06:15;38170.34;;;-141.02;100.00
8477;BME280;4275;42.854;23.222;2023-11-21T04:08:43;38172.25;;;-141.02;100.00
8477;BME280;4275;42.854;23.222;2023-11-21T04:14:59;38158.84;;;-141.02;100.00
8477;BME280;4275;42.854;23.222;2023-11-21T04:17:30;38176.09;;;-141.02;100.00
8477;BME280;4275;42.854;23.222;2023-11-21T04:19:57;38166.50;;;-141.02;100.00
8477;BME280;4275;42.854;23.222;2023-11-21T04:22:31;38145.44;;;-141.02;100.00
8477;BME280;4275;42.854;23.222;2023-11-21T04:25:10;38158.84;;;-141.02;100.00
8477;BME280;4275;42.854;23.222;2023-11-21T04:27:43;38204.84;;;-141.02;100.00
8477;BME280;4275;42.854;23.222;2023-11-21T04:30:15;38156.94;;;-141.02;100.00
8477;BME280;4275;42.854;23.222;2023-11-21T04:32:47;38174.19;;;-141.02;100.00
8477;BME280;4275;42.854;23.222;2023-11-21T04:35:20;38160.75;;;-141.02;100.00
8477;BME280;4275;42.854;23.222;2023-11-21T04:37:55;38172.25;;;-141.02;100.00
8477;BME280;4275;42.854;23.222;2023-11-21T04:40:28;38162.69;;;-141.02;100.00
8477;BME280;4275;42.854;23.222;2023-11-21T04:42:58;38147.34;;;-141.02;100.00
8477;BME280;4275;42.854;23.222;2023-11-21T04:45:25;38137.75;;;-141.02;100.00
8477;BME280;4275;42.854;23.222;2023-11-21T04:47:52;38176.09;;;-141.02;100.00
8477;BME280;4275;42.854;23.222;2023-11-21T04:50:19;38143.50;;;-141.02;100.00
8477;BME280;4275;42.854;23.222;2023-11-21T04:52:46;38164.59;;;-141.02;100.00
8477;BME280;4275;42.854;23.222;2023-11-21T04:55:14;38141.59;;;-141.02;100.00
8477;BME280;4275;42.854;23.222;2023-11-21T04:57:41;38147.34;;;-141.02;100.00
8477;BME280;4275;42.854;23.222;2023-11-21T05:00:09;38135.84;;;-141.02;100.00
8477;BME280;4275;42.854;23.222;2023-11-21T05:02:38;38133.91;;;-141.02;100.00
8477;BME280;4275;42.854;23.222;2023-11-21T05:05:06;38126.25;;;-141.02;100.00
8477;BME280;4275;42.854;23.222;2023-11-21T05:07:33;38201.03;;;-141.02;100.00
8477;BME280;4275;42.854;23.222;2023-11-21T05:10:01;38218.28;;;-141.02;100.00
8477;BME280;4275;42.854;23.222;2023-11-21T05:12:32;38354.41;;;-141.02;100.00
8477;BME280;4275;42.854;23.222;2023-11-21T05:15:00;38557.63;;;-141.02;100.00
8477;BME280;4275;42.854;23.222;2023-11-21T05:17:28;38772.38;;;-141.02;100.00
8477;BME280;4275;42.854;23.222;2023-11-21T05:19:58;38845.22;;;-141.02;100.00
8477;BME280;4275;42.854;23.222;2023-11-21T05:22:26;38818.38;;;-141.02;100.00
8477;BME280;4275;42.854;23.222;2023-11-21T05:24:53;38718.69;;;-141.02;100.00
8477;BME280;4275;42.854;23.222;2023-11-21T05:27:20;38745.53;;;-141.02;100.00
8477;BME280;4275;42.854;23.222;2023-11-21T05:29:48;38762.78;;;-141.02;100.00
8477;BME280;4275;42.854;23.222;2023-11-21T05:32:15;38841.41;;;-141.02;100.00
8477;BME280;4275;42.854;23.222;2023-11-21T05:34:43;38875.91;;;-141.02;100.00
8477;BME280;4275;42.854;23.222;2023-11-21T05:37:09;38952.59;;;-141.02;100.00
8477;BME280;4275;42.854;23.222;2023-11-21T05:39:36;38921.94;;;-141.02;100.00
8477;BME280;4275;42.854;23.222;2023-11-21T05:42:04;38979.47;;;-141.02;100.00
8477;BME280;4275;42.854;23.222;2023-11-21T05:44:31;39079.16;;;-141.02;100.00
8477;BME280;4275;42.854;23.222;2023-11-21T05:47:02;39132.88;;;-141.02;100.00
8477;BME280;4275;42.854;23.222;2023-11-21T05:49:29;39178.88;;;-141.02;100.00
8477;BME280;4275;42.854;23.222;2023-11-21T05:51:59;39240.25;;;-141.02;100.00
8477;BME280;4275;42.854;23.222;2023-11-21T05:54:26;39267.09;;;-141.02;100.00
8477;BME280;4275;42.854;23.222;2023-11-21T05:56:52;39278.59;;;-141.02;100.00
8477;BME280;4275;42.854;23.222;2023-11-21T05:59:19;39316.97;;;-141.02;100.00
8477;BME280;4275;42.854;23.222;2023-11-21T06:01:47;39297.78;;;-141.02;100.00
8477;BME280;4275;42.854;23.222;2023-11-21T06:04:15;39290.13;;;-141.02;100.00
8477;BME280;4275;42.854;23.222;2023-11-21T06:06:44;39316.97;;;-141.02;100.00
8477;BME280;4275;42.854;23.222;2023-11-21T06:09:10;39313.13;;;-141.02;100.00
8477;BME280;4275;42.854;23.222;2023-11-21T06:11:38;39305.44;;;-141.02;100.00
8477;BME280;4275;42.854;23.222;2023-11-21T06:14:05;39355.31;;;-141.02;100.00
8477;BME280;4275;42.854;23.222;2023-11-21T06:16:35;39357.22;;;-141.02;100.00
8477;BME280;4275;42.854;23.222;2023-11-21T06:19:02;39363.00;;;-141.02;100.00
8477;BME280;4275;42.854;23.222;2023-11-21T06:21:32;39399.44;;;-141.02;100.00
8477;BME280;4275;42.854;23.222;2023-11-21T06:23:59;39433.94;;;-141.02;100.00
8477;BME280;4275;42.854;23.222;2023-11-21T06:26:27;39455.03;;;-141.02;100.00
8477;BME280;4275;42.854;23.222;2023-11-21T06:28:54;39485.72;;;-141.02;100.00
8477;BME280;4275;42.854;23.222;2023-11-21T06:31:23;39466.53;;;-141.02;100.00
8477;BME280;4275;42.854;23.222;2023-11-21T06:33:50;39518.31;;;-141.02;100.00
8477;BME280;4275;42.854;23.222;2023-11-21T06:36:18;39497.22;;;-141.02;100.00
8477;BME280;4275;42.854;23.222;2023-11-21T06:38:46;39501.06;;;-141.02;100.00
8477;BME280;4275;42.854;23.222;2023-11-21T06:41:13;39543.25;;;-141.02;100.00
8477;BME280;4275;42.854;23.222;2023-11-21T06:43:41;39547.09;;;-141.02;100.00
8477;BME280;4275;42.854;23.222;2023-11-21T06:46:11;39554.78;;;-141.02;100.00
8477;BME280;4275;42.854;23.222;2023-11-21T06:48:41;39581.63;;;-141.02;100.00
8477;BME280;4275;42.854;23.222;2023-11-21T06:51:08;39558.59;;;-141.02;100.00
8477;BME280;4275;42.854;23.222;2023-11-21T06:53:36;39562.44;;;-141.02;100.00
8477;BME280;4275;42.854;23.222;2023-11-21T06:56:15;39577.78;;;-141.02;100.00
8477;BME280;4275;42.854;23.222;2023-11-21T06:58:42;39625.72;;;-141.02;100.00
8477;BME280;4275;42.854;23.222;2023-11-21T07:01:11;39616.13;;;-141.02;100.00
8477;BME280;4275;42.854;23.222;2023-11-21T07:03:38;39612.31;;;-141.02;100.00
8477;BME280;4275;42.854;23.222;2023-11-21T07:06:05;39610.38;;;-141.02;100.00
8477;BME280;4275;42.854;23.222;2023-11-21T07:08:33;39625.72;;;-141.02;100.00
8477;BME280;4275;42.854;23.222;2023-11-21T07:11:01;39654.50;;;-141.02;100.00
8477;BME280;4275;42.854;23.222;2023-11-21T07:13:30;39646.81;;;-141.02;100.00
8477;BME280;4275;42.854;23.222;2023-11-21T07:15:57;39635.31;;;-141.02;100.00
8477;BME280;4275;42.854;23.222;2023-11-21T07:18:24;39681.34;;;-141.02;100.00
8477;BME280;4275;42.854;23.222;2023-11-21T07:20:51;39698.63;;;-141.02;100.00
8477;BME280;4275;42.854;23.222;2023-11-21T07:23:19;39756.16;;;-141.02;100.00
8477;BME280;4275;42.854;23.222;2023-11-21T07:25:48;39738.88;;;-141.02;100.00
8477;BME280;4275;42.854;23.222;2023-11-21T07:28:15;39754.22;;;-141.02;100.00
8477;BME280;4275;42.854;23.222;2023-11-21T07:30:43;39792.59;;;-141.02;100.00
8477;BME280;4275;42.854;23.222;2023-11-21T07:33:10;39842.47;;;-141.02;100.00
8477;BME280;4275;42.854;23.222;2023-11-21T07:35:37;39892.34;;;-141.02;100.00
8477;BME280;4275;42.854;23.222;2023-11-21T07:38:04;39926.84;;;-141.02;100.00
8477;BME280;4275;42.854;23.222;2023-11-21T07:40:31;39986.31;;;-141.02;100.00
8477;BME280;4275;42.854;23.222;2023-11-21T07:42:58;39923.03;;;-141.02;100.00
8477;BME280;4275;42.854;23.222;2023-11-21T07:45:25;39980.56;;;-141.02;100.00
8477;BME280;4275;42.854;23.222;2023-11-21T07:47:54;40070.72;;;-141.02;100.00
8477;BME280;4275;42.854;23.222;2023-11-21T07:50:21;40072.63;;;-141.02;100.00
8477;BME280;4275;42.854;23.222;2023-11-21T07:52:48;40084.16;;;-141.02;100.00
8477;BME280;4275;42.854;23.222;2023-11-21T07:55:16;40080.31;;;-141.02;100.00
8477;BME280;4275;42.854;23.222;2023-11-21T07:57:43;40099.50;;;-141.02;100.00
8477;BME280;4275;42.854;23.222;2023-11-21T08:00:12;40126.34;;;-141.02;100.00
8477;BME280;4275;42.854;23.222;2023-11-21T08:02:43;40174.31;;;-141.02;100.00
8477;BME280;4275;42.854;23.222;2023-11-21T08:05:14;40164.72;;;-141.02;100.00
8477;BME280;4275;42.854;23.222;2023-11-21T08:07:41;40162.78;;;-141.02;100.00
8477;BME280;4275;42.854;23.222;2023-11-21T08:10:09;40134.00;;;-141.02;100.00
8477;BME280;4275;42.854;23.222;2023-11-21T08:12:36;40111.00;;;-141.02;100.00
8477;BME280;4275;42.854;23.222;2023-11-21T08:15:05;40145.53;;;-141.02;100.00
8477;BME280;4275;42.854;23.222;2023-11-21T08:17:33;40151.28;;;-141.02;100.00
8477;BME280;4275;42.854;23.222;2023-11-21T08:20:00;40116.75;;;-141.02;100.00
8477;BME280;4275;42.854;23.222;2023-11-21T08:22:30;40195.41;;;-141.02;100.00
8477;BME280;4275;42.854;23.222;2023-11-21T08:24:57;40187.72;;;-141.02;100.00
8477;BME280;4275;42.854;23.222;2023-11-21T08:27:24;40147.44;;;-141.02;100.00
8477;BME280;4275;42.854;23.222;2023-11-21T08:29:51;40145.53;;;-141.02;100.00
8477;BME280;4275;42.854;23.222;2023-11-21T08:32:18;40176.22;;;-141.02;100.00
8477;BME280;4275;42.854;23.222;2023-11-21T08:34:45;40178.13;;;-141.02;100.00
8477;BME280;4275;42.854;23.222;2023-11-21T08:37:16;40149.38;;;-141.02;100.00
8477;BME280;4275;42.854;23.222;2023-11-21T08:39:44;40187.72;;;-141.02;100.00
8477;BME280;4275;42.854;23.222;2023-11-21T08:42:12;40214.59;;;-141.02;100.00
8477;BME280;4275;42.854;23.222;2023-11-21T08:44:38;40157.03;;;-141.02;100.00
8477;BME280;4275;42.854;23.222;2023-11-21T08:47:06;40126.34;;;-141.02;100.00
8477;BME280;4275;42.854;23.222;2023-11-21T08:49:33;40180.06;;;-141.02;100.00
8477;BME280;4275;42.854;23.222;2023-11-21T08:52:00;40155.13;;;-141.02;100.00
8477;BME280;4275;42.854;23.222;2023-11-21T08:54:27;40135.94;;;-141.02;100.00
8477;BME280;4275;42.854;23.222;2023-11-21T08:56:55;40134.00;;;-141.02;100.00
8477;BME280;4275;42.854;23.222;2023-11-21T08:59:23;40122.50;;;-141.02;100.00
8477;BME280;4275;42.854;23.222;2023-11-21T09:01:50;40132.09;;;-141.02;100.00
8477;BME280;4275;42.854;23.222;2023-11-21T09:04:17;40134.00;;;-141.02;100.00
8477;BME280;4275;42.854;23.222;2023-11-21T09:06:44;40157.03;;;-141.02;100.00
8477;BME280;4275;42.854;23.222;2023-11-21T09:09:11;40137.84;;;-141.02;100.00
8477;BME280;4275;42.854;23.222;2023-11-21T09:11:39;40160.88;;;-141.02;100.00
8477;BME280;4275;42.854;23.222;2023-11-21T09:14:07;40135.94;;;-141.02;100.00
8477;BME280;4275;42.854;23.222;2023-11-21T09:16:35;40166.63;;;-141.02;100.00
8477;BME280;4275;42.854;23.222;2023-11-21T09:19:02;40170.47;;;-141.02;100.00
8477;BME280;4275;42.854;23.222;2023-11-21T09:21:31;40168.53;;;-141.02;100.00
8477;BME280;4275;42.854;23.222;2023-11-21T09:23:58;40189.66;;;-141.02;100.00
8477;BME280;4275;42.854;23.222;2023-11-21T09:26:25;40203.06;;;-141.02;100.00
8477;BME280;4275;42.854;23.222;2023-11-21T09:28:52;40254.88;;;-141.02;100.00
8477;BME280;4275;42.854;23.222;2023-11-21T09:31:20;40226.09;;;-141.02;100.00
8477;BME280;4275;42.854;23.222;2023-11-21T09:33:48;40275.97;;;-141.02;100.00
8477;BME280;4275;42.854;23.222;2023-11-21T09:36:15;40306.66;;;-141.02;100.00
8477;BME280;4275;42.854;23.222;2023-11-21T09:38:42;40339.28;;;-141.02;100.00
8477;BME280;4275;42.854;23.222;2023-11-21T09:41:15;40348.88;;;-141.02;100.00
8477;BME280;4275;42.854;23.222;2023-11-21T09:43:46;40329.69;;;-141.02;100.00
8477;BME280;4275;42.854;23.222;2023-11-21T09:46:14;40352.69;;;-141.02;100.00
8477;BME280;4275;42.854;23.222;2023-11-21T09:48:48;40362.28;;;-141.02;100.00
8477;BME280;4275;42.854;23.222;2023-11-21T09:51:19;40341.19;;;-141.02;100.00
8477;BME280;4275;42.854;23.222;2023-11-21T09:53:50;40302.81;;;-141.02;100.00
8477;BME280;4275;42.854;23.222;2023-11-21T09:56:18;40295.16;;;-141.02;100.00
8477;BME280;4275;42.854;23.222;2023-11-21T09:58:51;40360.38;;;-141.02;100.00
8477;BME280;4275;42.854;23.222;2023-11-21T10:01:19;40329.69;;;-141.02;100.00
8477;BME280;4275;42.854;23.222;2023-11-21T10:03:58;40302.81;;;-141.02;100.00
8477;BME280;4275;42.854;23.222;2023-11-21T10:07:22;40366.13;;;-141.02;100.00
8477;BME280;4275;42.854;23.222;2023-11-21T10:09:51;40335.44;;;-141.02;100.00
8477;BME280;4275;42.854;23.222;2023-11-21T10:12:18;40364.22;;;-141.02;100.00
8477;BME280;4275;42.854;23.222;2023-11-21T10:14:48;40345.03;;;-141.02;100.00
8477;BME280;4275;42.854;23.222;2023-11-21T10:17:17;40360.38;;;-141.02;100.00
8477;BME280;4275;42.854;23.222;2023-11-21T10:19:47;40398.75;;;-141.02;100.00
8477;BME280;4275;42.854;23.222;2023-11-21T10:22:14;40306.66;;;-141.02;100.00
8477;BME280;4275;42.854;23.222;2023-11-21T10:24:42;40322.00;;;-141.02;100.00
8477;BME280;4275;42.854;23.222;2023-11-21T10:27:09;40268.28;;;-141.02;100.00
8477;BME280;4275;42.854;23.222;2023-11-21T10:29:36;40295.16;;;-141.02;100.00
8477;BME280;4275;42.854;23.222;2023-11-21T10:32:04;40298.97;;;-141.02;100.00
8477;BME280;4275;42.854;23.222;2023-11-21T10:34:33;40318.16;;;-141.02;100.00
8477;BME280;4275;42.854;23.222;2023-11-21T10:37:11;40270.22;;;-141.02;100.00
8477;BME280;4275;42.854;23.222;2023-11-21T10:39:38;40275.97;;;-141.02;100.00
8477;BME280;4275;42.854;23.222;2023-11-21T10:42:08;40233.75;;;-141.02;100.00
8477;BME280;4275;42.854;23.222;2023-11-21T10:44:35;40237.59;;;-141.02;100.00
8477;BME280;4275;42.854;23.222;2023-11-21T10:47:03;40239.53;;;-141.02;100.00
8477;BME280;4275;42.854;23.222;2023-11-21T10:49:30;40281.72;;;-141.02;100.00
8477;BME280;4275;42.854;23.222;2023-11-21T10:52:09;40252.94;;;-141.02;100.00
8477;BME280;4275;42.854;23.222;2023-11-21T10:54:43;40222.25;;;-141.02;100.00
8477;BME280;4275;42.854;23.222;2023-11-21T10:57:11;40199.22;;;-141.02;100.00
8477;BME280;4275;42.854;23.222;2023-11-21T10:59:41;40222.25;;;-141.02;100.00
8477;BME280;4275;42.854;23.222;2023-11-21T11:02:20;40187.72;;;-141.02;100.00
8477;BME280;4275;42.854;23.222;2023-11-21T11:04:48;40151.28;;;-141.02;100.00
8477;BME280;4275;42.854;23.222;2023-11-21T11:07:17;40176.22;;;-141.02;100.00
8477;BME280;4275;42.854;23.222;2023-11-21T11:09:47;40162.78;;;-141.02;100.00
8477;BME280;4275;42.854;23.222;2023-11-21T11:12:14;40172.38;;;-141.02;100.00
8477;BME280;4275;42.854;23.222;2023-11-21T11:14:43;40130.19;;;-141.02;100.00
8477;BME280;4275;42.854;23.222;2023-11-21T11:17:10;40134.00;;;-141.02;100.00
8477;BME280;4275;42.854;23.222;2023-11-21T11:19:37;40166.63;;;-141.02;100.00
8477;BME280;4275;42.854;23.222;2023-11-21T11:22:12;40158.94;;;-141.02;100.00
8477;BME280;4275;42.854;23.222;2023-11-21T11:24:58;40178.13;;;-141.02;100.00
8477;BME280;4275;42.854;23.222;2023-11-21T11:28:02;40164.72;;;-141.02;100.00
8477;BME280;4275;42.854;23.222;2023-11-21T11:30:41;40183.88;;;-141.02;100.00
8477;BME280;4275;42.854;23.222;2023-11-21T11:33:21;40164.72;;;-141.02;100.00
8477;BME280;4275;42.854;23.222;2023-11-21T11:35:56;40114.84;;;-141.02;100.00
8477;BME280;4275;42.854;23.222;2023-11-21T11:38:31;40130.19;;;-141.02;100.00
8477;BME280;4275;42.854;23.222;2023-11-21T11:41:01;40107.16;;;-141.02;100.00
8477;BME280;4275;42.854;23.222;2023-11-21T11:43:29;40199.22;;;-141.02;100.00
8477;BME280;4275;42.854;23.222;2023-11-21T11:45:58;40099.50;;;-141.02;100.00
8477;BME280;4275;42.854;23.222;2023-11-21T11:48:29;40041.94;;;-141.02;100.00
8477;BME280;4275;42.854;23.222;2023-11-21T11:51:04;39932.59;;;-141.02;100.00
8477;BME280;4275;42.854;23.222;2023-11-21T11:53:39;39915.34;;;-141.02;100.00
8477;BME280;4275;42.854;23.222;2023-11-21T11:56:25;39880.81;;;-141.02;100.00
8477;BME280;4275;42.854;23.222;2023-11-21T11:58:57;39834.78;;;-141.02;100.00
8477;BME280;4275;42.854;23.222;2023-11-21T12:01:38;39836.72;;;-141.02;100.00
8477;BME280;4275;42.854;23.222;2023-11-21T12:04:24;39784.91;;;-141.02;100.00
8477;BME280;4275;42.854;23.222;2023-11-21T12:07:00;39735.06;;;-141.02;100.00
8477;BME280;4275;42.854;23.222;2023-11-21T12:09:29;39702.44;;;-141.02;100.00
8477;BME280;4275;42.854;23.222;2023-11-21T12:15:20;39547.09;;;-141.02;100.00
8477;BME280;4275;42.854;23.222;2023-11-21T12:17:48;39443.53;;;-141.02;100.00
8477;BME280;4275;42.854;23.222;2023-11-21T12:20:18;39305.44;;;-141.02;100.00
8477;BME280;4275;42.854;23.222;2023-11-21T12:22:46;39263.25;;;-141.02;100.00
8477;BME280;4275;42.854;23.222;2023-11-21T12:25:17;39282.44;;;-141.02;100.00
8477;BME280;4275;42.854;23.222;2023-11-21T12:27:46;39311.22;;;-141.02;100.00
8477;BME280;4275;42.854;23.222;2023-11-21T12:30:16;39347.66;;;-141.02;100.00
8477;BME280;4275;42.854;23.222;2023-11-21T12:32:47;39339.97;;;-141.02;100.00
8477;BME280;4275;42.854;23.222;2023-11-21T12:35:15;39301.63;;;-141.02;100.00
8477;BME280;4275;42.854;23.222;2023-11-21T12:37:45;39309.28;;;-141.02;100.00
8477;BME280;4275;42.854;23.222;2023-11-21T12:40:12;39255.59;;;-141.02;100.00
8477;BME280;4275;42.854;23.222;2023-11-21T12:42:41;39198.06;;;-141.02;100.00
8477;BME280;4275;42.854;23.222;2023-11-21T12:45:10;39176.97;;;-141.02;100.00
8477;BME280;4275;42.854;23.222;2023-11-21T12:47:48;39129.03;;;-141.02;100.00
8477;BME280;4275;42.854;23.222;2023-11-21T12:50:18;39140.53;;;-141.02;100.00
8477;BME280;4275;42.854;23.222;2023-11-21T12:52:50;39142.44;;;-141.02;100.00
8477;BME280;4275;42.854;23.222;2023-11-21T12:55:19;39102.19;;;-141.02;100.00
8477;BME280;4275;42.854;23.222;2023-11-21T12:57:48;39077.25;;;-141.02;100.00
8477;BME280;4275;42.854;23.222;2023-11-21T13:00:18;39069.59;;;-141.02;100.00
8477;BME280;4275;42.854;23.222;2023-11-21T13:02:55;39132.88;;;-141.02;100.00
8477;BME280;4275;42.854;23.222;2023-11-21T13:05:25;39083.00;;;-141.02;100.00
8477;BME280;4275;42.854;23.222;2023-11-21T13:07:52;39136.69;;;-141.02;100.00
8477;BME280;4275;42.854;23.222;2023-11-21T13:10:22;39117.53;;;-141.02;100.00
8477;BME280;4275;42.854;23.222;2023-11-21T13:12:52;39169.28;;;-141.02;100.00
8477;BME280;4275;42.854;23.222;2023-11-21T13:15:20;39257.50;;;-141.02;100.00
8477;BME280;4275;42.854;23.222;2023-11-21T13:17:47;39276.69;;;-141.02;100.00
8477;BME280;4275;42.854;23.222;2023-11-21T13:20:17;39299.69;;;-141.02;100.00
8477;BME280;4275;42.854;23.222;2023-11-21T13:22:48;39320.78;;;-141.02;100.00
8477;BME280;4275;42.854;23.222;2023-11-21T13:25:16;39336.13;;;-141.02;100.00
8477;BME280;4275;42.854;23.222;2023-11-21T13:27:45;39328.47;;;-141.02;100.00
8477;BME280;4275;42.854;23.222;2023-11-21T13:30:13;39313.13;;;-141.02;100.00
8477;BME280;4275;42.854;23.222;2023-11-21T13:32:46;39236.41;;;-141.02;100.00
8477;BME280;4275;42.854;23.222;2023-11-21T14:02:27;38994.78;;;-141.02;100.00
8477;BME280;4275;42.854;23.222;2023-11-21T14:05:12;39036.97;;;-141.02;100.00
8477;BME280;4275;42.854;23.222;2023-11-21T14:07:59;38994.78;;;-141.02;100.00
8477;BME280;4275;42.854;23.222;2023-11-21T14:10:30;38998.63;;;-141.02;100.00
8477;BME280;4275;42.854;23.222;2023-11-21T14:13:06;38998.63;;;-141.02;100.00
8477;BME280;4275;42.854;23.222;2023-11-21T14:15:33;38914.25;;;-141.02;100.00
8477;BME280;4275;42.854;23.222;2023-11-21T14:18:05;38849.06;;;-141.02;100.00
8477;BME280;4275;42.854;23.222;2023-11-21T14:20:35;38783.88;;;-141.02;100.00
8477;BME280;4275;42.854;23.222;2023-11-21T14:23:03;38768.53;;;-141.02;100.00
8477;BME280;4275;42.854;23.222;2023-11-21T14:25:31;38758.94;;;-141.02;100.00
8477;BME280;4275;42.854;23.222;2023-11-21T14:27:59;38680.34;;;-141.02;100.00
8477;BME280;4275;42.854;23.222;2023-11-21T14:30:26;38647.72;;;-141.02;100.00
8477;BME280;4275;42.854;23.222;2023-11-21T14:32:54;38666.91;;;-141.02;100.00
8477;BME280;4275;42.854;23.222;2023-11-21T14:35:23;38630.47;;;-141.02;100.00
8477;BME280;4275;42.854;23.222;2023-11-21T14:37:49;38641.97;;;-141.02;100.00
8477;BME280;4275;42.854;23.222;2023-11-21T14:40:16;38607.47;;;-141.02;100.00
8477;BME280;4275;42.854;23.222;2023-11-21T14:42:48;38561.47;;;-141.02;100.00
8477;BME280;4275;42.854;23.222;2023-11-21T14:45:18;38475.19;;;-141.02;100.00
8477;BME280;4275;42.854;23.222;2023-11-21T14:47:46;38431.09;;;-141.02;100.00
8477;BME280;4275;42.854;23.222;2023-11-21T14:50:18;38281.53;;;-141.02;100.00
8477;BME280;4275;42.854;23.222;2023-11-21T14:53:04;38231.69;;;-141.02;100.00
8477;BME280;4275;42.854;23.222;2023-11-21T14:55:32;38139.69;;;-141.02;100.00
8477;BME280;4275;42.854;23.222;2023-11-21T14:58:04;38080.25;;;-141.02;100.00
8477;BME280;4275;42.854;23.222;2023-11-21T15:00:36;38018.91;;;-141.02;100.00
8477;BME280;4275;42.854;23.222;2023-11-21T15:03:10;38003.56;;;-141.02;100.00
8477;BME280;4275;42.854;23.222;2023-11-21T15:05:48;37974.81;;;-141.02;100.00
8477;BME280;4275;42.854;23.222;2023-11-21T15:08:16;37982.47;;;-141.02;100.00
8477;BME280;4275;42.854;23.222;2023-11-21T15:10:47;37982.47;;;-141.02;100.00
8477;BME280;4275;42.854;23.222;2023-11-21T15:13:18;37959.47;;;-141.02;100.00
8477;BME280;4275;42.854;23.222;2023-11-21T15:15:46;37955.63;;;-141.02;100.00
8477;BME280;4275;42.854;23.222;2023-11-21T15:18:13;37947.97;;;-141.02;100.00
8477;BME280;4275;42.854;23.222;2023-11-21T15:20:40;37915.38;;;-141.02;100.00
8477;BME280;4275;42.854;23.222;2023-11-21T15:23:08;37928.81;;;-141.02;100.00